sensor_id;sensor_type;location;lat;lon;timestamp;temperature;humidity
76936;DHT22;65881;52.438;16.744;2023-06-05T00:00:58;11.30;64.20
76936;DHT22;65881;52.438;16.744;2023-06-05T00:03:25;11.20;63.40
76936;DHT22;65881;52.438;16.744;2023-06-05T00:05:52;11.20;62.90
76936;DHT22;65881;52.438;16.744;2023-06-05T00:08:18;11.20;62.20
76936;DHT22;65881;52.438;16.744;2023-06-05T00:10:44;11.20;62.30
76936;DHT22;65881;52.438;16.744;2023-06-05T00:13:10;11.10;62.20
76936;DHT22;65881;52.438;16.744;2023-06-05T00:15:35;11.10;62.30
76936;DHT22;65881;52.438;16.744;2023-06-05T00:18:03;11.10;61.90
76936;DHT22;65881;52.438;16.744;2023-06-05T00:20:32;11.10;61.00
76936;DHT22;65881;52.438;16.744;2023-06-05T00:22:57;11.10;60.70
76936;DHT22;65881;52.438;16.744;2023-06-05T00:25:23;11.10;61.00
76936;DHT22;65881;52.438;16.744;2023-06-05T00:27:49;11.10;61.50
76936;DHT22;65881;52.438;16.744;2023-06-05T00:30:15;11.10;61.90
76936;DHT22;65881;52.438;16.744;2023-06-05T00:32:41;11.10;61.10
76936;DHT22;65881;52.438;16.744;2023-06-05T00:35:07;11.10;61.30
76936;DHT22;65881;52.438;16.744;2023-06-05T00:37:35;11.10;62.10
76936;DHT22;65881;52.438;16.744;2023-06-05T00:40:03;11.00;62.40
76936;DHT22;65881;52.438;16.744;2023-06-05T00:42:28;11.00;63.20
76936;DHT22;65881;52.438;16.744;2023-06-05T00:44:55;11.00;63.20
76936;DHT22;65881;52.438;16.744;2023-06-05T00:47:22;10.90;63.40
76936;DHT22;65881;52.438;16.744;2023-06-05T00:49:48;10.90;63.70
76936;DHT22;65881;52.438;16.744;2023-06-05T00:52:14;10.90;63.90
76936;DHT22;65881;52.438;16.744;2023-06-05T00:54:41;10.90;64.00
76936;DHT22;65881;52.438;16.744;2023-06-05T00:57:08;10.90;63.80
76936;DHT22;65881;52.438;16.744;2023-06-05T00:59:34;10.80;64.10
76936;DHT22;65881;52.438;16.744;2023-06-05T01:02:01;10.70;64.70
76936;DHT22;65881;52.438;16.744;2023-06-05T01:04:31;10.70;64.80
76936;DHT22;65881;52.438;16.744;2023-06-05T01:06:58;10.70;65.00
76936;DHT22;65881;52.438;16.744;2023-06-05T01:09:26;10.70;65.30
76936;DHT22;65881;52.438;16.744;2023-06-05T01:14:22;10.60;65.80
76936;DHT22;65881;52.438;16.744;2023-06-05T01:16:50;10.60;65.50
76936;DHT22;65881;52.438;16.744;2023-06-05T01:19:23;10.70;65.20
76936;DHT22;65881;52.438;16.744;2023-06-05T01:21:55;10.60;65.60
76936;DHT22;65881;52.438;16.744;2023-06-05T01:24:21;10.60;65.60
76936;DHT22;65881;52.438;16.744;2023-06-05T01:27:08;10.60;65.90
76936;DHT22;65881;52.438;16.744;2023-06-05T01:30:01;10.50;66.50
76936;DHT22;65881;52.438;16.744;2023-06-05T01:35:08;10.50;66.30
76936;DHT22;65881;52.438;16.744;2023-06-05T01:37:38;10.40;65.10
76936;DHT22;65881;52.438;16.744;2023-06-05T01:40:11;10.40;64.80
76936;DHT22;65881;52.438;16.744;2023-06-05T01:42:40;10.40;65.30
76936;DHT22;65881;52.438;16.744;2023-06-05T01:45:08;10.40;65.60
76936;DHT22;65881;52.438;16.744;2023-06-05T01:47:35;10.40;65.30
76936;DHT22;65881;52.438;16.744;2023-06-05T01:50:02;10.40;65.60
76936;DHT22;65881;52.438;16.744;2023-06-05T01:52:27;10.40;66.20
76936;DHT22;65881;52.438;16.744;2023-06-05T01:54:53;10.30;66.80
76936;DHT22;65881;52.438;16.744;2023-06-05T01:57:20;10.30;67.40
76936;DHT22;65881;52.438;16.744;2023-06-05T01:59:46;10.30;67.70
76936;DHT22;65881;52.438;16.744;2023-06-05T02:02:14;10.30;68.00
76936;DHT22;65881;52.438;16.744;2023-06-05T02:04:42;10.20;68.20
76936;DHT22;65881;52.438;16.744;2023-06-05T02:07:07;10.10;68.20
76936;DHT22;65881;52.438;16.744;2023-06-05T02:09:34;10.10;68.40
76936;DHT22;65881;52.438;16.744;2023-06-05T02:12:00;10.00;68.20
76936;DHT22;65881;52.438;16.744;2023-06-05T02:14:30;10.00;68.70
76936;DHT22;65881;52.438;16.744;2023-06-05T02:16:57;9.90;68.90
76936;DHT22;65881;52.438;16.744;2023-06-05T02:19:24;9.80;68.90
76936;DHT22;65881;52.438;16.744;2023-06-05T02:21:49;9.80;68.50
76936;DHT22;65881;52.438;16.744;2023-06-05T02:24:18;9.80;68.70
76936;DHT22;65881;52.438;16.744;2023-06-05T02:26:44;9.80;68.80
76936;DHT22;65881;52.438;16.744;2023-06-05T02:29:10;9.80;69.10
76936;DHT22;65881;52.438;16.744;2023-06-05T02:31:36;9.80;69.20
76936;DHT22;65881;52.438;16.744;2023-06-05T02:34:02;9.70;69.20
76936;DHT22;65881;52.438;16.744;2023-06-05T02:36:28;9.70;69.40
76936;DHT22;65881;52.438;16.744;2023-06-05T02:38:58;9.70;69.50
76936;DHT22;65881;52.438;16.744;2023-06-05T02:41:25;9.60;70.20
76936;DHT22;65881;52.438;16.744;2023-06-05T02:43:52;9.60;71.00
76936;DHT22;65881;52.438;16.744;2023-06-05T02:46:19;9.60;71.30
76936;DHT22;65881;52.438;16.744;2023-06-05T02:48:44;9.60;71.50
76936;DHT22;65881;52.438;16.744;2023-06-05T02:51:10;9.60;72.00
76936;DHT22;65881;52.438;16.744;2023-06-05T02:53:38;9.60;72.10
76936;DHT22;65881;52.438;16.744;2023-06-05T02:56:05;9.70;72.10
76936;DHT22;65881;52.438;16.744;2023-06-05T02:58:31;9.60;72.00
76936;DHT22;65881;52.438;16.744;2023-06-05T03:01:02;9.60;72.10
76936;DHT22;65881;52.438;16.744;2023-06-05T03:03:32;9.50;71.70
76936;DHT22;65881;52.438;16.744;2023-06-05T03:06:01;9.50;71.50
76936;DHT22;65881;52.438;16.744;2023-06-05T03:08:34;9.40;71.90
76936;DHT22;65881;52.438;16.744;2023-06-05T03:11:01;9.40;72.00
76936;DHT22;65881;52.438;16.744;2023-06-05T03:13:27;9.30;73.50
76936;DHT22;65881;52.438;16.744;2023-06-05T03:15:54;9.20;73.70
76936;DHT22;65881;52.438;16.744;2023-06-05T03:18:23;9.20;73.90
76936;DHT22;65881;52.438;16.744;2023-06-05T03:20:50;9.20;74.00
76936;DHT22;65881;52.438;16.744;2023-06-05T03:23:16;9.20;73.90
76936;DHT22;65881;52.438;16.744;2023-06-05T03:25:42;9.20;74.00
76936;DHT22;65881;52.438;16.744;2023-06-05T03:28:08;9.40;73.90
76936;DHT22;65881;52.438;16.744;2023-06-05T03:30:34;9.40;74.40
76936;DHT22;65881;52.438;16.744;2023-06-05T03:33:00;9.40;74.50
76936;DHT22;65881;52.438;16.744;2023-06-05T03:35:26;9.50;74.30
76936;DHT22;65881;52.438;16.744;2023-06-05T03:37:53;9.60;75.90
76936;DHT22;65881;52.438;16.744;2023-06-05T03:40:19;9.60;75.30
76936;DHT22;65881;52.438;16.744;2023-06-05T03:42:44;9.70;75.10
76936;DHT22;65881;52.438;16.744;2023-06-05T03:45:11;9.70;75.30
76936;DHT22;65881;52.438;16.744;2023-06-05T03:47:39;9.70;74.80
76936;DHT22;65881;52.438;16.744;2023-06-05T03:50:04;9.80;74.70
76936;DHT22;65881;52.438;16.744;2023-06-05T03:52:30;9.80;74.70
76936;DHT22;65881;52.438;16.744;2023-06-05T03:54:56;9.80;74.20
76936;DHT22;65881;52.438;16.744;2023-06-05T03:57:23;9.90;73.40
76936;DHT22;65881;52.438;16.744;2023-06-05T03:59:49;10.00;73.70
76936;DHT22;65881;52.438;16.744;2023-06-05T04:02:15;10.00;72.60
76936;DHT22;65881;52.438;16.744;2023-06-05T04:04:41;10.00;72.60
76936;DHT22;65881;52.438;16.744;2023-06-05T04:07:06;10.00;71.40
76936;DHT22;65881;52.438;16.744;2023-06-05T04:09:32;10.10;69.70
76936;DHT22;65881;52.438;16.744;2023-06-05T04:11:58;10.20;69.30
76936;DHT22;65881;52.438;16.744;2023-06-05T04:14:24;10.30;70.00
76936;DHT22;65881;52.438;16.744;2023-06-05T04:16:50;10.40;70.00
76936;DHT22;65881;52.438;16.744;2023-06-05T04:19:16;10.40;70.50
76936;DHT22;65881;52.438;16.744;2023-06-05T04:21:42;10.50;70.70
76936;DHT22;65881;52.438;16.744;2023-06-05T04:24:09;10.50;70.30
76936;DHT22;65881;52.438;16.744;2023-06-05T04:26:37;10.50;70.10
76936;DHT22;65881;52.438;16.744;2023-06-05T04:29:04;10.60;69.80
76936;DHT22;65881;52.438;16.744;2023-06-05T04:31:43;10.60;70.10
76936;DHT22;65881;52.438;16.744;2023-06-05T04:34:09;10.60;70.50
76936;DHT22;65881;52.438;16.744;2023-06-05T04:36:35;10.70;70.20
76936;DHT22;65881;52.438;16.744;2023-06-05T04:39:01;10.70;69.40
76936;DHT22;65881;52.438;16.744;2023-06-05T04:41:32;10.80;69.50
76936;DHT22;65881;52.438;16.744;2023-06-05T04:43:58;10.80;69.60
76936;DHT22;65881;52.438;16.744;2023-06-05T04:46:26;10.90;70.10
76936;DHT22;65881;52.438;16.744;2023-06-05T04:48:52;10.90;69.40
76936;DHT22;65881;52.438;16.744;2023-06-05T04:51:21;11.00;69.30
76936;DHT22;65881;52.438;16.744;2023-06-05T04:53:47;11.10;68.90
76936;DHT22;65881;52.438;16.744;2023-06-05T04:56:19;11.10;69.10
76936;DHT22;65881;52.438;16.744;2023-06-05T04:58:46;11.20;70.00
76936;DHT22;65881;52.438;16.744;2023-06-05T05:01:13;11.30;69.50
76936;DHT22;65881;52.438;16.744;2023-06-05T05:03:39;11.40;68.60
76936;DHT22;65881;52.438;16.744;2023-06-05T05:06:08;11.50;68.50
76936;DHT22;65881;52.438;16.744;2023-06-05T05:08:33;11.50;68.60
76936;DHT22;65881;52.438;16.744;2023-06-05T05:11:02;11.70;67.20
76936;DHT22;65881;52.438;16.744;2023-06-05T05:13:28;11.70;66.60
76936;DHT22;65881;52.438;16.744;2023-06-05T05:15:53;11.90;65.80
76936;DHT22;65881;52.438;16.744;2023-06-05T05:18:19;11.90;65.80
76936;DHT22;65881;52.438;16.744;2023-06-05T05:20:46;12.00;65.50
76936;DHT22;65881;52.438;16.744;2023-06-05T05:23:16;12.20;66.50
76936;DHT22;65881;52.438;16.744;2023-06-05T05:25:41;12.40;65.60
76936;DHT22;65881;52.438;16.744;2023-06-05T05:28:13;12.50;64.00
76936;DHT22;65881;52.438;16.744;2023-06-05T05:30:39;12.50;62.00
76936;DHT22;65881;52.438;16.744;2023-06-05T05:33:06;12.70;61.80
76936;DHT22;65881;52.438;16.744;2023-06-05T05:35:32;12.70;61.50
76936;DHT22;65881;52.438;16.744;2023-06-05T05:38:04;12.80;62.30
76936;DHT22;65881;52.438;16.744;2023-06-05T05:40:29;12.90;60.10
76936;DHT22;65881;52.438;16.744;2023-06-05T05:42:55;12.90;60.20
76936;DHT22;65881;52.438;16.744;2023-06-05T05:45:21;13.00;60.00
76936;DHT22;65881;52.438;16.744;2023-06-05T05:47:46;13.10;59.80
76936;DHT22;65881;52.438;16.744;2023-06-05T05:50:12;13.10;59.60
76936;DHT22;65881;52.438;16.744;2023-06-05T05:52:38;13.20;61.00
76936;DHT22;65881;52.438;16.744;2023-06-05T05:55:04;13.30;60.70
76936;DHT22;65881;52.438;16.744;2023-06-05T05:57:30;13.40;59.80
76936;DHT22;65881;52.438;16.744;2023-06-05T05:59:56;13.50;60.80
76936;DHT22;65881;52.438;16.744;2023-06-05T06:02:44;13.50;61.30
76936;DHT22;65881;52.438;16.744;2023-06-05T06:05:10;13.50;59.20
76936;DHT22;65881;52.438;16.744;2023-06-05T06:07:37;13.60;59.20
76936;DHT22;65881;52.438;16.744;2023-06-05T06:10:12;13.70;57.60
76936;DHT22;65881;52.438;16.744;2023-06-05T06:12:39;13.90;58.50
76936;DHT22;65881;52.438;16.744;2023-06-05T06:15:05;13.90;56.70
76936;DHT22;65881;52.438;16.744;2023-06-05T06:17:31;14.10;56.50
76936;DHT22;65881;52.438;16.744;2023-06-05T06:19:57;14.20;56.50
76936;DHT22;65881;52.438;16.744;2023-06-05T06:22:33;14.40;55.30
76936;DHT22;65881;52.438;16.744;2023-06-05T06:24:59;14.40;55.10
76936;DHT22;65881;52.438;16.744;2023-06-05T06:27:25;14.50;53.80
76936;DHT22;65881;52.438;16.744;2023-06-05T06:29:51;14.60;54.20
76936;DHT22;65881;52.438;16.744;2023-06-05T06:32:25;14.70;53.00
76936;DHT22;65881;52.438;16.744;2023-06-05T06:34:52;15.00;51.20
76936;DHT22;65881;52.438;16.744;2023-06-05T06:37:19;15.30;50.30
76936;DHT22;65881;52.438;16.744;2023-06-05T06:39:48;15.40;51.50
76936;DHT22;65881;52.438;16.744;2023-06-05T06:42:14;15.40;50.70
76936;DHT22;65881;52.438;16.744;2023-06-05T06:44:40;15.40;50.30
76936;DHT22;65881;52.438;16.744;2023-06-05T06:47:07;15.50;50.20
76936;DHT22;65881;52.438;16.744;2023-06-05T06:49:37;15.60;48.30
76936;DHT22;65881;52.438;16.744;2023-06-05T06:52:03;16.00;47.70
76936;DHT22;65881;52.438;16.744;2023-06-05T06:54:47;16.30;47.90
76936;DHT22;65881;52.438;16.744;2023-06-05T06:57:13;16.40;47.40
76936;DHT22;65881;52.438;16.744;2023-06-05T06:59:41;16.60;47.30
76936;DHT22;65881;52.438;16.744;2023-06-05T07:02:15;16.90;45.60
76936;DHT22;65881;52.438;16.744;2023-06-05T07:04:42;17.10;45.50
76936;DHT22;65881;52.438;16.744;2023-06-05T07:07:16;17.40;43.20
76936;DHT22;65881;52.438;16.744;2023-06-05T07:09:43;17.70;42.40
76936;DHT22;65881;52.438;16.744;2023-06-05T07:12:14;17.80;42.60
76936;DHT22;65881;52.438;16.744;2023-06-05T07:14:40;18.00;43.60
76936;DHT22;65881;52.438;16.744;2023-06-05T07:17:07;18.00;43.20
76936;DHT22;65881;52.438;16.744;2023-06-05T07:19:34;18.10;40.90
76936;DHT22;65881;52.438;16.744;2023-06-05T07:22:02;18.20;41.80
76936;DHT22;65881;52.438;16.744;2023-06-05T07:24:30;18.20;42.30
76936;DHT22;65881;52.438;16.744;2023-06-05T07:26:59;18.20;42.30
76936;DHT22;65881;52.438;16.744;2023-06-05T07:29:25;18.20;44.10
76936;DHT22;65881;52.438;16.744;2023-06-05T07:31:56;18.30;40.90
76936;DHT22;65881;52.438;16.744;2023-06-05T07:34:23;18.30;42.50
76936;DHT22;65881;52.438;16.744;2023-06-05T07:36:51;18.40;43.60
76936;DHT22;65881;52.438;16.744;2023-06-05T07:39:22;18.40;41.90
76936;DHT22;65881;52.438;16.744;2023-06-05T07:41:48;18.50;40.60
76936;DHT22;65881;52.438;16.744;2023-06-05T07:44:17;18.60;39.50
76936;DHT22;65881;52.438;16.744;2023-06-05T07:46:44;18.80;38.10
76936;DHT22;65881;52.438;16.744;2023-06-05T07:49:09;19.10;37.90
76936;DHT22;65881;52.438;16.744;2023-06-05T07:51:39;19.10;40.30
76936;DHT22;65881;52.438;16.744;2023-06-05T07:54:06;19.20;39.50
76936;DHT22;65881;52.438;16.744;2023-06-05T07:56:32;19.20;40.00
76936;DHT22;65881;52.438;16.744;2023-06-05T07:58:59;19.30;38.70
76936;DHT22;65881;52.438;16.744;2023-06-05T08:01:26;19.30;39.80
76936;DHT22;65881;52.438;16.744;2023-06-05T08:03:53;19.40;39.30
76936;DHT22;65881;52.438;16.744;2023-06-05T08:06:19;19.50;40.80
76936;DHT22;65881;52.438;16.744;2023-06-05T08:08:45;19.50;39.50
76936;DHT22;65881;52.438;16.744;2023-06-05T08:11:11;19.50;36.50
76936;DHT22;65881;52.438;16.744;2023-06-05T08:13:37;19.50;38.00
76936;DHT22;65881;52.438;16.744;2023-06-05T08:16:04;19.60;38.70
76936;DHT22;65881;52.438;16.744;2023-06-05T08:18:30;19.70;38.10
76936;DHT22;65881;52.438;16.744;2023-06-05T08:20:56;19.70;36.30
76936;DHT22;65881;52.438;16.744;2023-06-05T08:23:40;19.90;37.60
76936;DHT22;65881;52.438;16.744;2023-06-05T08:26:06;20.00;40.00
76936;DHT22;65881;52.438;16.744;2023-06-05T08:28:40;20.10;37.50
76936;DHT22;65881;52.438;16.744;2023-06-05T08:31:09;20.30;36.90
76936;DHT22;65881;52.438;16.744;2023-06-05T08:33:36;20.30;36.90
76936;DHT22;65881;52.438;16.744;2023-06-05T08:36:05;20.40;37.00
76936;DHT22;65881;52.438;16.744;2023-06-05T08:38:31;20.50;35.80
76936;DHT22;65881;52.438;16.744;2023-06-05T08:41:05;20.80;34.40
76936;DHT22;65881;52.438;16.744;2023-06-05T08:43:36;21.00;33.30
76936;DHT22;65881;52.438;16.744;2023-06-05T08:46:04;21.10;33.70
76936;DHT22;65881;52.438;16.744;2023-06-05T08:48:32;21.40;34.20
76936;DHT22;65881;52.438;16.744;2023-06-05T08:51:00;21.60;33.30
76936;DHT22;65881;52.438;16.744;2023-06-05T08:53:29;21.60;35.30
76936;DHT22;65881;52.438;16.744;2023-06-05T08:55:57;21.90;33.20
76936;DHT22;65881;52.438;16.744;2023-06-05T08:58:24;22.20;33.40
76936;DHT22;65881;52.438;16.744;2023-06-05T09:00:50;22.30;34.80
76936;DHT22;65881;52.438;16.744;2023-06-05T09:03:16;22.40;35.40
76936;DHT22;65881;52.438;16.744;2023-06-05T09:05:48;22.60;33.20
76936;DHT22;65881;52.438;16.744;2023-06-05T09:08:17;22.80;33.00
76936;DHT22;65881;52.438;16.744;2023-06-05T09:10:44;22.90;34.40
76936;DHT22;65881;52.438;16.744;2023-06-05T09:13:25;23.00;33.00
76936;DHT22;65881;52.438;16.744;2023-06-05T09:16:12;23.10;33.10
76936;DHT22;65881;52.438;16.744;2023-06-05T09:18:58;23.20;31.70
76936;DHT22;65881;52.438;16.744;2023-06-05T09:21:26;23.60;31.40
76936;DHT22;65881;52.438;16.744;2023-06-05T09:24:15;23.70;30.90
76936;DHT22;65881;52.438;16.744;2023-06-05T09:26:50;23.80;29.90
76936;DHT22;65881;52.438;16.744;2023-06-05T09:29:33;24.00;31.20
76936;DHT22;65881;52.438;16.744;2023-06-05T09:32:04;24.20;29.60
76936;DHT22;65881;52.438;16.744;2023-06-05T09:34:34;24.50;29.80
76936;DHT22;65881;52.438;16.744;2023-06-05T09:37:08;24.60;29.80
76936;DHT22;65881;52.438;16.744;2023-06-05T09:39:41;24.80;30.30
76936;DHT22;65881;52.438;16.744;2023-06-05T09:42:08;24.70;29.80
76936;DHT22;65881;52.438;16.744;2023-06-05T09:44:35;25.10;28.60
76936;DHT22;65881;52.438;16.744;2023-06-05T09:47:10;25.20;28.40
76936;DHT22;65881;52.438;16.744;2023-06-05T09:52:11;25.40;29.40
76936;DHT22;65881;52.438;16.744;2023-06-05T09:54:47;25.00;29.20
76936;DHT22;65881;52.438;16.744;2023-06-05T09:57:37;25.40;27.90
76936;DHT22;65881;52.438;16.744;2023-06-05T10:00:04;25.20;28.70
76936;DHT22;65881;52.438;16.744;2023-06-05T10:02:40;25.60;27.50
76936;DHT22;65881;52.438;16.744;2023-06-05T10:05:08;25.80;27.00
76936;DHT22;65881;52.438;16.744;2023-06-05T10:07:37;26.00;27.00
76936;DHT22;65881;52.438;16.744;2023-06-05T10:10:05;26.20;27.50
76936;DHT22;65881;52.438;16.744;2023-06-05T10:12:36;26.20;27.90
76936;DHT22;65881;52.438;16.744;2023-06-05T10:15:15;26.00;27.90
76936;DHT22;65881;52.438;16.744;2023-06-05T10:17:41;26.10;28.60
76936;DHT22;65881;52.438;16.744;2023-06-05T10:20:16;25.80;28.50
76936;DHT22;65881;52.438;16.744;2023-06-05T10:22:45;25.80;26.60
76936;DHT22;65881;52.438;16.744;2023-06-05T10:25:11;26.00;28.90
76936;DHT22;65881;52.438;16.744;2023-06-05T10:39:48;26.50;27.00
76936;DHT22;65881;52.438;16.744;2023-06-05T10:42:28;26.60;25.80
76936;DHT22;65881;52.438;16.744;2023-06-05T10:45:03;26.40;26.20
76936;DHT22;65881;52.438;16.744;2023-06-05T10:50:19;26.70;25.30
76936;DHT22;65881;52.438;16.744;2023-06-05T10:52:49;26.50;26.40
76936;DHT22;65881;52.438;16.744;2023-06-05T10:55:15;26.60;25.20
76936;DHT22;65881;52.438;16.744;2023-06-05T11:01:28;27.00;26.50
76936;DHT22;65881;52.438;16.744;2023-06-05T11:04:01;26.00;25.90
76936;DHT22;65881;52.438;16.744;2023-06-05T11:06:27;26.50;26.50
76936;DHT22;65881;52.438;16.744;2023-06-05T11:09:10;27.10;25.90
76936;DHT22;65881;52.438;16.744;2023-06-05T11:11:57;27.10;27.40
76936;DHT22;65881;52.438;16.744;2023-06-05T11:14:55;26.90;27.10
76936;DHT22;65881;52.438;16.744;2023-06-05T11:17:31;27.20;25.50
76936;DHT22;65881;52.438;16.744;2023-06-05T11:23:14;27.10;25.10
76936;DHT22;65881;52.438;16.744;2023-06-05T11:25:45;27.20;25.20
76936;DHT22;65881;52.438;16.744;2023-06-05T11:28:11;27.50;25.30
76936;DHT22;65881;52.438;16.744;2023-06-05T11:30:46;27.50;25.20
76936;DHT22;65881;52.438;16.744;2023-06-05T11:33:21;27.10;24.30
76936;DHT22;65881;52.438;16.744;2023-06-05T11:35:48;27.20;24.60
76936;DHT22;65881;52.438;16.744;2023-06-05T11:38:17;27.20;25.10
76936;DHT22;65881;52.438;16.744;2023-06-05T11:40:44;27.10;24.50
76936;DHT22;65881;52.438;16.744;2023-06-05T11:43:13;27.10;25.40
76936;DHT22;65881;52.438;16.744;2023-06-05T11:45:43;27.20;24.40
76936;DHT22;65881;52.438;16.744;2023-06-05T11:48:14;27.20;26.20
76936;DHT22;65881;52.438;16.744;2023-06-05T11:51:09;27.40;24.40
76936;DHT22;65881;52.438;16.744;2023-06-05T11:53:35;27.40;24.70
76936;DHT22;65881;52.438;16.744;2023-06-05T11:56:12;27.70;24.40
76936;DHT22;65881;52.438;16.744;2023-06-05T11:58:38;27.10;26.20
76936;DHT22;65881;52.438;16.744;2023-06-05T12:03:43;27.00;27.00
76936;DHT22;65881;52.438;16.744;2023-06-05T12:06:10;27.00;25.80
76936;DHT22;65881;52.438;16.744;2023-06-05T12:08:39;26.90;26.40
76936;DHT22;65881;52.438;16.744;2023-06-05T12:11:26;27.00;26.50
76936;DHT22;65881;52.438;16.744;2023-06-05T12:13:56;27.60;24.10
76936;DHT22;65881;52.438;16.744;2023-06-05T12:16:39;27.70;24.30
76936;DHT22;65881;52.438;16.744;2023-06-05T12:19:16;27.90;24.50
76936;DHT22;65881;52.438;16.744;2023-06-05T12:21:49;27.30;25.10
76936;DHT22;65881;52.438;16.744;2023-06-05T12:24:25;27.30;24.50
76936;DHT22;65881;52.438;16.744;2023-06-05T12:27:04;27.40;26.00
76936;DHT22;65881;52.438;16.744;2023-06-05T12:29:35;27.50;25.60
76936;DHT22;65881;52.438;16.744;2023-06-05T12:32:22;27.50;25.50
76936;DHT22;65881;52.438;16.744;2023-06-05T12:34:49;26.90;24.30
76936;DHT22;65881;52.438;16.744;2023-06-05T12:37:26;26.60;24.80
76936;DHT22;65881;52.438;16.744;2023-06-05T12:40:00;26.70;25.10
76936;DHT22;65881;52.438;16.744;2023-06-05T12:42:26;26.70;24.70
76936;DHT22;65881;52.438;16.744;2023-06-05T12:45:06;27.10;25.30
76936;DHT22;65881;52.438;16.744;2023-06-05T12:47:36;26.90;24.30
76936;DHT22;65881;52.438;16.744;2023-06-05T12:50:06;27.10;25.30
76936;DHT22;65881;52.438;16.744;2023-06-05T12:52:38;27.20;25.20
76936;DHT22;65881;52.438;16.744;2023-06-05T12:55:05;27.50;23.40
76936;DHT22;65881;52.438;16.744;2023-06-05T12:57:34;27.30;25.50
76936;DHT22;65881;52.438;16.744;2023-06-05T13:00:04;27.50;24.30
76936;DHT22;65881;52.438;16.744;2023-06-05T13:02:50;27.50;24.50
76936;DHT22;65881;52.438;16.744;2023-06-05T13:05:26;27.30;25.10
76936;DHT22;65881;52.438;16.744;2023-06-05T13:07:51;27.00;26.70
76936;DHT22;65881;52.438;16.744;2023-06-05T13:10:19;27.20;25.10
76936;DHT22;65881;52.438;16.744;2023-06-05T13:12:45;27.30;24.70
76936;DHT22;65881;52.438;16.744;2023-06-05T13:15:11;27.10;26.40
76936;DHT22;65881;52.438;16.744;2023-06-05T13:21:02;26.70;25.30
76936;DHT22;65881;52.438;16.744;2023-06-05T13:23:31;26.50;25.40
76936;DHT22;65881;52.438;16.744;2023-06-05T13:26:06;26.90;26.60
76936;DHT22;65881;52.438;16.744;2023-06-05T13:28:32;27.00;24.70
76936;DHT22;65881;52.438;16.744;2023-06-05T13:30:58;27.20;25.80
76936;DHT22;65881;52.438;16.744;2023-06-05T13:33:35;27.20;26.50
76936;DHT22;65881;52.438;16.744;2023-06-05T13:36:06;26.90;26.50
76936;DHT22;65881;52.438;16.744;2023-06-05T13:38:32;27.10;25.90
76936;DHT22;65881;52.438;16.744;2023-06-05T13:41:00;27.00;24.10
76936;DHT22;65881;52.438;16.744;2023-06-05T13:43:26;26.80;24.40
76936;DHT22;65881;52.438;16.744;2023-06-05T13:46:23;26.50;25.60
76936;DHT22;65881;52.438;16.744;2023-06-05T13:48:49;26.50;25.60
76936;DHT22;65881;52.438;16.744;2023-06-05T13:51:21;26.50;26.80
76936;DHT22;65881;52.438;16.744;2023-06-05T13:53:47;26.60;25.80
76936;DHT22;65881;52.438;16.744;2023-06-05T13:56:13;26.40;25.30
76936;DHT22;65881;52.438;16.744;2023-06-05T13:58:38;26.40;25.80
76936;DHT22;65881;52.438;16.744;2023-06-05T14:01:04;25.90;24.80
76936;DHT22;65881;52.438;16.744;2023-06-05T14:03:30;25.90;25.20
76936;DHT22;65881;52.438;16.744;2023-06-05T14:06:19;26.10;24.60
76936;DHT22;65881;52.438;16.744;2023-06-05T14:09:06;26.20;24.90
76936;DHT22;65881;52.438;16.744;2023-06-05T14:11:35;26.40;24.70
76936;DHT22;65881;52.438;16.744;2023-06-05T14:14:02;26.60;26.40
76936;DHT22;65881;52.438;16.744;2023-06-05T14:16:27;26.60;27.20
76936;DHT22;65881;52.438;16.744;2023-06-05T14:18:55;26.40;26.50
76936;DHT22;65881;52.438;16.744;2023-06-05T14:21:21;26.20;26.60
76936;DHT22;65881;52.438;16.744;2023-06-05T14:23:47;26.30;26.60
76936;DHT22;65881;52.438;16.744;2023-06-05T14:26:13;26.20;25.40
76936;DHT22;65881;52.438;16.744;2023-06-05T14:28:38;26.20;26.20
76936;DHT22;65881;52.438;16.744;2023-06-05T14:31:04;25.80;27.50
76936;DHT22;65881;52.438;16.744;2023-06-05T14:33:30;25.80;28.00
76936;DHT22;65881;52.438;16.744;2023-06-05T14:35:57;25.60;27.90
76936;DHT22;65881;52.438;16.744;2023-06-05T14:38:24;25.80;25.50
76936;DHT22;65881;52.438;16.744;2023-06-05T14:40:57;25.80;25.30
76936;DHT22;65881;52.438;16.744;2023-06-05T14:43:23;25.90;26.40
76936;DHT22;65881;52.438;16.744;2023-06-05T14:45:50;25.60;27.10
76936;DHT22;65881;52.438;16.744;2023-06-05T14:48:22;25.60;27.20
76936;DHT22;65881;52.438;16.744;2023-06-05T14:51:00;25.40;28.00
76936;DHT22;65881;52.438;16.744;2023-06-05T14:53:26;25.30;26.70
76936;DHT22;65881;52.438;16.744;2023-06-05T14:55:53;25.20;27.30
76936;DHT22;65881;52.438;16.744;2023-06-05T14:58:18;25.40;26.80
76936;DHT22;65881;52.438;16.744;2023-06-05T15:00:45;25.30;26.20
76936;DHT22;65881;52.438;16.744;2023-06-05T15:03:11;25.40;25.60
76936;DHT22;65881;52.438;16.744;2023-06-05T15:05:37;25.30;25.50
76936;DHT22;65881;52.438;16.744;2023-06-05T15:08:06;25.30;26.80
76936;DHT22;65881;52.438;16.744;2023-06-05T15:10:31;25.20;27.80
76936;DHT22;65881;52.438;16.744;2023-06-05T15:12:57;24.80;26.90
76936;DHT22;65881;52.438;16.744;2023-06-05T15:15:26;24.70;26.70
76936;DHT22;65881;52.438;16.744;2023-06-05T15:17:52;24.70;26.60
76936;DHT22;65881;52.438;16.744;2023-06-05T15:20:20;24.50;27.20
76936;DHT22;65881;52.438;16.744;2023-06-05T15:22:47;24.40;27.70
76936;DHT22;65881;52.438;16.744;2023-06-05T15:25:12;24.40;26.20
76936;DHT22;65881;52.438;16.744;2023-06-05T15:27:38;24.50;28.10
76936;DHT22;65881;52.438;16.744;2023-06-05T15:30:05;24.50;28.00
76936;DHT22;65881;52.438;16.744;2023-06-05T15:32:31;24.20;28.40
76936;DHT22;65881;52.438;16.744;2023-06-05T15:34:57;24.20;28.40
76936;DHT22;65881;52.438;16.744;2023-06-05T15:37:25;24.10;29.40
76936;DHT22;65881;52.438;16.744;2023-06-05T15:39:51;24.00;29.50
76936;DHT22;65881;52.438;16.744;2023-06-05T15:42:33;23.90;29.20
76936;DHT22;65881;52.438;16.744;2023-06-05T15:45:18;23.90;29.20
76936;DHT22;65881;52.438;16.744;2023-06-05T15:47:43;23.90;30.20
76936;DHT22;65881;52.438;16.744;2023-06-05T15:50:10;23.80;30.30
76936;DHT22;65881;52.438;16.744;2023-06-05T15:52:41;23.90;30.10
76936;DHT22;65881;52.438;16.744;2023-06-05T15:55:08;23.90;29.70
76936;DHT22;65881;52.438;16.744;2023-06-05T15:57:34;23.90;29.30
76936;DHT22;65881;52.438;16.744;2023-06-05T16:00:00;23.90;30.20
76936;DHT22;65881;52.438;16.744;2023-06-05T16:02:26;23.90;28.20
76936;DHT22;65881;52.438;16.744;2023-06-05T16:04:51;24.00;28.40